createdAt,value
2023-05-16T00:00:15.151Z,10.6
2023-05-16T00:01:28.125Z,10.6
2023-05-16T00:02:41.193Z,10.6
2023-05-16T00:03:54.227Z,10.6
2023-05-16T00:05:07.179Z,10.5
2023-05-16T00:06:20.194Z,10.4
2023-05-16T00:07:33.520Z,10.4
2023-05-16T00:08:46.215Z,10.4
2023-05-16T00:09:59.207Z,10.4
2023-05-16T00:11:12.245Z,10.3
2023-05-16T00:12:25.291Z,10.3
2023-05-16T00:13:38.180Z,10.3
2023-05-16T00:14:51.215Z,10.3
2023-05-16T00:16:04.206Z,10.3
2023-05-16T00:17:17.208Z,10.2
2023-05-16T00:18:30.243Z,10.2
2023-05-16T00:19:43.225Z,10.2
2023-05-16T00:20:56.214Z,10.1
2023-05-16T00:22:09.521Z,10
2023-05-16T00:23:22.187Z,10
2023-05-16T00:24:35.187Z,10
2023-05-16T00:25:48.226Z,9.9
2023-05-16T00:27:01.247Z,9.9
2023-05-16T00:28:14.205Z,9.9
2023-05-16T00:29:27.221Z,9.9
2023-05-16T00:30:40.217Z,9.7
2023-05-16T00:31:53.266Z,9.7
2023-05-16T00:33:06.242Z,9.7
2023-05-16T00:34:19.240Z,9.7
2023-05-16T00:35:32.219Z,9.7
2023-05-16T00:36:45.335Z,9.7
2023-05-16T00:37:58.253Z,9.7
2023-05-16T00:39:10.970Z,9.7
2023-05-16T00:40:24.336Z,9.6
2023-05-16T00:41:37.386Z,9.6
2023-05-16T00:42:50.207Z,9.6
2023-05-16T00:44:03.271Z,9.7
2023-05-16T00:45:16.193Z,9.7
2023-05-16T00:46:29.204Z,9.7
2023-05-16T00:47:42.232Z,9.7
2023-05-16T00:48:55.214Z,9.7
2023-05-16T00:50:08.327Z,9.7
2023-05-16T00:51:21.223Z,9.7
2023-05-16T00:52:34.199Z,9.5
2023-05-16T00:53:47.203Z,9.5
2023-05-16T00:55:00.198Z,9.5
2023-05-16T00:56:13.208Z,9.5
2023-05-16T00:57:26.245Z,9.5
2023-05-16T00:58:39.246Z,9.5
2023-05-16T00:59:52.194Z,9.5
2023-05-16T01:01:05.278Z,9.5
2023-05-16T01:02:18.264Z,9.5
2023-05-16T01:03:31.300Z,9.3
2023-05-16T01:04:44.221Z,9.3
2023-05-16T01:05:57.180Z,9.3
2023-05-16T01:07:10.203Z,9.3
2023-05-16T01:08:23.183Z,9.3
2023-05-16T01:09:36.216Z,9.3
2023-05-16T01:10:49.268Z,9.3
2023-05-16T01:12:02.187Z,9.2
2023-05-16T01:13:15.301Z,9.2
2023-05-16T01:14:28.203Z,9.2
2023-05-16T01:15:41.238Z,9.2
2023-05-16T01:16:54.189Z,9.2
2023-05-16T01:18:07.282Z,9.2
2023-05-16T01:19:20.293Z,9.2
2023-05-16T01:20:33.244Z,9.2
2023-05-16T01:21:46.141Z,9.2
2023-05-16T01:22:59.163Z,9.1
2023-05-16T01:24:12.164Z,9.1
2023-05-16T01:25:25.353Z,9.1
2023-05-16T01:26:38.193Z,9.1
2023-05-16T01:27:51.182Z,9.1
2023-05-16T01:29:04.179Z,9.1
2023-05-16T01:30:17.174Z,9.1
2023-05-16T01:31:30.215Z,9.1
2023-05-16T01:32:43.264Z,9.1
2023-05-16T01:33:56.177Z,9.1
2023-05-16T01:35:09.188Z,9.1
2023-05-16T01:36:22.211Z,9.1
2023-05-16T01:37:35.200Z,9.1
2023-05-16T01:38:48.246Z,8.9
2023-05-16T01:40:01.186Z,8.9
2023-05-16T01:41:14.343Z,8.9
2023-05-16T01:42:27.175Z,8.9
2023-05-16T01:43:40.173Z,8.9
2023-05-16T01:44:53.176Z,8.9
2023-05-16T01:46:06.182Z,8.8
2023-05-16T01:47:19.286Z,8.8
2023-05-16T01:48:32.199Z,8.8
2023-05-16T01:49:45.246Z,8.7
2023-05-16T01:50:58.418Z,8.7
2023-05-16T01:52:11.208Z,8.7
2023-05-16T01:53:24.210Z,8.7
2023-05-16T01:54:37.309Z,8.6
2023-05-16T01:55:50.212Z,8.5
2023-05-16T01:57:03.261Z,8.5
2023-05-16T01:58:16.217Z,8.5
2023-05-16T01:59:29.264Z,8.6
2023-05-16T02:00:42.390Z,8.6
2023-05-16T02:01:55.265Z,8.6
2023-05-16T02:03:08.254Z,8.6
2023-05-16T02:04:21.358Z,8.5
2023-05-16T02:05:34.198Z,8.4
2023-05-16T02:06:47.203Z,8.4
2023-05-16T02:08:00.168Z,8.4
2023-05-16T02:09:13.174Z,8.4
2023-05-16T02:10:26.201Z,8.4
2023-05-16T02:11:39.186Z,8.4
2023-05-16T02:12:52.201Z,8.4
2023-05-16T02:14:05.196Z,8.4
2023-05-16T02:15:18.219Z,8.3
2023-05-16T02:16:31.227Z,8.3
2023-05-16T02:17:44.290Z,8.3
2023-05-16T02:18:57.225Z,8.3
2023-05-16T02:20:10.223Z,8.3
2023-05-16T02:21:23.195Z,8.3
2023-05-16T02:22:36.278Z,8.3
2023-05-16T02:23:49.350Z,8.3
2023-05-16T02:25:02.197Z,8.3
2023-05-16T02:26:15.298Z,8.3
2023-05-16T02:27:28.210Z,8.3
2023-05-16T02:28:41.235Z,8.3
2023-05-16T02:29:54.232Z,8.3
2023-05-16T02:31:07.287Z,8.3
2023-05-16T02:32:20.281Z,8.3
2023-05-16T02:33:33.260Z,8.3
2023-05-16T02:34:46.242Z,8.3
2023-05-16T02:35:59.228Z,8.3
2023-05-16T02:37:13.302Z,8.3
2023-05-16T02:38:25.347Z,8.3
2023-05-16T02:39:38.221Z,8.3
2023-05-16T02:40:51.233Z,8.3
2023-05-16T02:42:04.201Z,8.3
2023-05-16T02:43:17.212Z,8.3
2023-05-16T02:44:30.203Z,8.3
2023-05-16T02:45:43.209Z,8.3
2023-05-16T02:46:56.220Z,8.3
2023-05-16T02:48:09.260Z,8.3
2023-05-16T02:49:22.257Z,8.3
2023-05-16T02:50:35.412Z,8.3
2023-05-16T02:51:48.221Z,8.3
2023-05-16T02:53:01.244Z,8.3
2023-05-16T02:54:14.222Z,8.3
2023-05-16T02:55:27.241Z,8.3
2023-05-16T02:56:40.196Z,8.3
2023-05-16T02:57:53.217Z,8.3
2023-05-16T02:59:06.161Z,8.3
2023-05-16T03:00:19.224Z,8.3
2023-05-16T03:01:32.289Z,8.3
2023-05-16T03:02:45.332Z,8.3
2023-05-16T03:03:58.413Z,8.3
2023-05-16T03:05:11.208Z,8.1
2023-05-16T03:06:24.232Z,8.1
2023-05-16T03:07:37.257Z,8.3
2023-05-16T03:08:50.211Z,8.3
2023-05-16T03:10:03.273Z,8.1
2023-05-16T03:11:16.223Z,8.1
2023-05-16T03:12:29.308Z,8.2
2023-05-16T03:13:42.234Z,8.1
2023-05-16T03:14:55.208Z,8.2
2023-05-16T03:16:08.260Z,8.2
2023-05-16T03:17:21.391Z,8.2
2023-05-16T03:18:34.247Z,8.2
2023-05-16T03:19:47.239Z,8.2
2023-05-16T03:21:00.205Z,8.2
2023-05-16T03:22:13.323Z,8.2
2023-05-16T03:23:26.214Z,8.2
2023-05-16T03:24:39.263Z,8.2
2023-05-16T03:25:52.234Z,8.2
2023-05-16T03:27:05.220Z,8.2
2023-05-16T03:28:18.229Z,8.1
2023-05-16T03:29:31.234Z,8.1
2023-05-16T03:30:44.265Z,8.1
2023-05-16T03:31:57.218Z,8.1
2023-05-16T03:33:10.327Z,8.1
2023-05-16T03:34:23.216Z,8.1
2023-05-16T03:35:36.323Z,8.1
2023-05-16T03:36:49.227Z,8.1
2023-05-16T03:38:02.226Z,8.1
2023-05-16T03:39:15.219Z,8.1
2023-05-16T03:40:28.231Z,7.9
2023-05-16T03:41:41.219Z,7.9
2023-05-16T03:42:54.241Z,7.9
2023-05-16T03:44:07.307Z,7.9
2023-05-16T03:45:20.238Z,7.9
2023-05-16T03:46:33.422Z,7.9
2023-05-16T03:47:46.252Z,7.9
2023-05-16T03:48:59.245Z,7.9
2023-05-16T03:50:12.258Z,7.9
2023-05-16T03:51:25.263Z,7.9
2023-05-16T03:52:38.274Z,7.8
2023-05-16T03:53:51.228Z,7.8
2023-05-16T03:55:04.197Z,7.8
2023-05-16T03:56:17.208Z,7.8
2023-05-16T03:57:29.966Z,7.8
2023-05-16T04:02:22.552Z,7.6
2023-05-16T04:09:40.089Z,7.6
2023-05-16T04:10:53.263Z,7.5
2023-05-16T04:12:06.237Z,7.5
2023-05-16T04:15:45.228Z,7.5
2023-05-16T04:16:58.451Z,7.5
2023-05-16T04:18:11.172Z,7.5
2023-05-16T04:19:24.256Z,7.5
2023-05-16T04:20:37.124Z,7.4
2023-05-16T04:21:50.275Z,7.4
2023-05-16T04:24:16.299Z,7.4
2023-05-16T04:25:29.466Z,7.4
2023-05-16T04:26:42.271Z,7.4
2023-05-16T04:27:55.295Z,7.4
2023-05-16T04:29:08.375Z,7.2
2023-05-16T04:30:21.233Z,7.2
2023-05-16T04:31:34.313Z,7.2
2023-05-16T04:32:47.290Z,7.2
2023-05-16T04:33:59.963Z,7.2
2023-05-16T04:35:13.280Z,7.2
2023-05-16T04:36:26.243Z,7.3
2023-05-16T04:38:52.252Z,7.4
2023-05-16T04:40:05.629Z,7.4
2023-05-16T04:41:18.234Z,7.4
2023-05-16T04:42:31.316Z,7.4
2023-05-16T04:43:44.397Z,7.4
2023-05-16T04:44:57.305Z,7.4
2023-05-16T04:46:10.307Z,7.4
2023-05-16T04:48:36.373Z,7.4
2023-05-16T04:49:49.244Z,7.3
2023-05-16T04:51:02.267Z,7.4
2023-05-16T04:52:15.211Z,7.5
2023-05-16T04:53:28.136Z,7.5
2023-05-16T04:54:41.105Z,7.5
2023-05-16T04:55:54.445Z,7.6
2023-05-16T04:57:07.269Z,7.6
2023-05-16T04:58:20.254Z,7.6
2023-05-16T04:59:33.245Z,7.6
2023-05-16T05:00:46.270Z,7.6
2023-05-16T05:01:59.125Z,7.6
2023-05-16T05:03:12.709Z,7.8
2023-05-16T05:04:25.433Z,7.7
2023-05-16T05:05:38.279Z,7.7
2023-05-16T05:06:51.888Z,7.7
2023-05-16T05:08:04.206Z,7.8
2023-05-16T05:09:17.244Z,7.9
2023-05-16T05:10:30.248Z,7.9
2023-05-16T05:11:43.403Z,7.9
2023-05-16T05:12:56.310Z,7.9
2023-05-16T05:14:09.128Z,7.9
2023-05-16T05:15:22.284Z,7.9
2023-05-16T05:16:35.263Z,8.1
2023-05-16T05:17:48.395Z,8.1
2023-05-16T05:19:01.188Z,8.1
2023-05-16T05:20:14.244Z,8.1
2023-05-16T05:21:27.383Z,8
2023-05-16T05:22:41.155Z,8.1
2023-05-16T05:23:53.295Z,8.1
2023-05-16T05:25:06.002Z,8.1
2023-05-16T05:26:19.220Z,8.1
2023-05-16T05:27:32.281Z,8.1
2023-05-16T05:28:50.835Z,8.1
2023-05-16T05:29:58.274Z,8.1
2023-05-16T05:31:11.625Z,8.3
2023-05-16T05:32:24.284Z,8.3
2023-05-16T05:33:37.259Z,8.3
2023-05-16T05:34:50.412Z,8.3
2023-05-16T05:36:04.170Z,8.3
2023-05-16T05:37:16.272Z,8.3
2023-05-16T05:38:29.383Z,8.3
2023-05-16T05:39:42.177Z,8.3
2023-05-16T05:40:55.113Z,8.3
2023-05-16T05:42:08.643Z,8.4
2023-05-16T05:43:21.265Z,8.4
2023-05-16T05:44:34.246Z,8.4
2023-05-16T05:45:47.298Z,8.4
2023-05-16T05:47:00.157Z,8.5
2023-05-16T05:48:13.368Z,8.5
2023-05-16T05:49:26.287Z,8.5
2023-05-16T05:50:39.281Z,8.5
2023-05-16T05:51:52.462Z,8.7
2023-05-16T05:53:05.254Z,8.7
2023-05-16T05:54:18.325Z,8.7
2023-05-16T05:55:31.581Z,8.7
2023-05-16T05:56:44.256Z,8.7
2023-05-16T05:57:57.271Z,8.8
2023-05-16T05:59:10.263Z,8.8
2023-05-16T06:00:23.160Z,8.8
2023-05-16T06:01:36.275Z,8.8
2023-05-16T06:02:49.568Z,8.8
2023-05-16T06:04:02.362Z,8.8
2023-05-16T06:05:15.363Z,8.9
2023-05-16T06:06:28.290Z,8.9
2023-05-16T06:07:41.506Z,8.9
2023-05-16T06:08:54.260Z,9.1
2023-05-16T06:10:07.293Z,9.1
2023-05-16T06:11:20.437Z,9.1
2023-05-16T06:12:33.115Z,9.1
2023-05-16T06:13:46.084Z,9.1
2023-05-16T06:14:59.251Z,9.2
2023-05-16T06:16:12.272Z,9.2
2023-05-16T06:17:25.137Z,9.3
2023-05-16T06:18:38.367Z,9.4
2023-05-16T06:19:51.250Z,9.5
2023-05-16T06:21:04.341Z,9.5
2023-05-16T06:22:17.486Z,9.5
2023-05-16T06:23:30.272Z,9.5
2023-05-16T06:24:43.320Z,9.5
2023-05-16T06:25:56.304Z,9.5
2023-05-16T06:27:09.327Z,9.4
2023-05-16T06:28:22.773Z,9.4
2023-05-16T06:29:35.315Z,9.6
2023-05-16T06:30:48.304Z,9.6
2023-05-16T06:32:01.176Z,9.6
2023-05-16T06:33:14.625Z,9.7
2023-05-16T06:34:27.293Z,9.7
2023-05-16T06:35:40.280Z,9.9
2023-05-16T06:36:53.289Z,9.8
2023-05-16T06:38:06.266Z,9.8
2023-05-16T06:39:19.307Z,9.8
2023-05-16T06:40:32.263Z,10
2023-05-16T06:41:45.268Z,10
2023-05-16T06:42:58.358Z,10.2
2023-05-16T06:44:11.275Z,10.2
2023-05-16T06:45:24.251Z,10.2
2023-05-16T06:46:37.292Z,10.2
2023-05-16T06:47:50.030Z,10.2
2023-05-16T06:49:02.959Z,10.2
2023-05-16T06:50:16.274Z,10.2
2023-05-16T06:51:29.366Z,10.4
2023-05-16T06:52:42.349Z,10.4
2023-05-16T06:53:55.211Z,10.4
2023-05-16T06:55:08.432Z,10.4
2023-05-16T06:56:21.316Z,10.4
2023-05-16T06:57:34.244Z,10.6
2023-05-16T06:58:47.340Z,10.6
2023-05-16T07:00:00.242Z,10.6
2023-05-16T07:01:13.354Z,10.4
2023-05-16T07:02:26.398Z,10.4
2023-05-16T07:03:39.389Z,10.4
2023-05-16T07:04:52.312Z,10.4
2023-05-16T07:06:05.313Z,10.4
2023-05-16T07:07:18.317Z,10.4
2023-05-16T07:08:31.303Z,10.4
2023-05-16T07:09:44.307Z,10.2
2023-05-16T07:10:57.323Z,10.3
2023-05-16T07:12:10.392Z,10.4
2023-05-16T07:13:23.281Z,10.5
2023-05-16T07:14:36.272Z,10.6
2023-05-16T07:15:49.299Z,10.6
2023-05-16T07:17:02.397Z,10.7
2023-05-16T07:18:15.375Z,10.8
2023-05-16T07:19:28.607Z,10.8
2023-05-16T07:20:41.277Z,10.9
2023-05-16T07:21:54.280Z,10.9
2023-05-16T07:23:07.328Z,11
2023-05-16T07:24:20.428Z,11.2
2023-05-16T07:25:33.257Z,11.2
2023-05-16T07:26:46.306Z,11.2
2023-05-16T07:27:59.251Z,11.3
2023-05-16T07:29:12.283Z,11.4
2023-05-16T07:30:25.499Z,11.5
2023-05-16T07:31:38.408Z,11.6
2023-05-16T07:32:51.314Z,11.7
2023-05-16T07:34:04.311Z,11.7
2023-05-16T07:35:17.302Z,11.9
2023-05-16T07:36:30.295Z,11.8
2023-05-16T07:37:43.352Z,12
2023-05-16T07:38:56.291Z,12.2
2023-05-16T07:40:09.240Z,12.2
2023-05-16T07:41:22.512Z,12.2
2023-05-16T07:42:35.267Z,12.2
2023-05-16T07:43:48.250Z,12.2
2023-05-16T07:45:01.262Z,12.4
2023-05-16T07:46:14.519Z,12.4
2023-05-16T07:47:27.394Z,12.5
2023-05-16T07:48:40.338Z,12.6
2023-05-16T07:49:53.263Z,12.5
2023-05-16T07:51:06.256Z,12.7
2023-05-16T07:52:19.443Z,12.7
2023-05-16T07:53:32.250Z,12.7
2023-05-16T07:54:45.302Z,12.5
2023-05-16T07:55:58.276Z,12.5
2023-05-16T07:57:11.450Z,12.2
2023-05-16T07:58:24.438Z,12.1
2023-05-16T07:59:37.569Z,12.1
2023-05-16T08:00:50.329Z,12.2
2023-05-16T08:02:03.318Z,12.2
2023-05-16T08:03:16.943Z,12.2
2023-05-16T08:04:29.164Z,12.2
2023-05-16T08:05:42.312Z,12.2
2023-05-16T08:06:55.292Z,12.2
2023-05-16T08:08:08.366Z,12.2
2023-05-16T08:09:21.277Z,12.2
2023-05-16T08:10:34.167Z,12.3
2023-05-16T08:11:47.361Z,12.3
2023-05-16T08:13:00.275Z,12.4
2023-05-16T08:14:13.020Z,12.4
2023-05-16T08:15:26.448Z,12.4
2023-05-16T08:16:39.333Z,12.5
2023-05-16T08:17:52.329Z,12.6
2023-05-16T08:19:05.313Z,12.6
2023-05-16T08:20:18.255Z,12.5
2023-05-16T08:21:31.294Z,12.6
2023-05-16T08:22:44.288Z,12.7
2023-05-16T08:23:57.287Z,12.8
2023-05-16T08:25:10.314Z,12.8
2023-05-16T08:26:23.488Z,12.9
2023-05-16T08:27:36.324Z,12.9
2023-05-16T08:28:49.288Z,12.9
2023-05-16T08:30:02.313Z,13.1
2023-05-16T08:31:15.387Z,13.1
2023-05-16T08:32:28.320Z,13.1
2023-05-16T08:33:41.275Z,12.9
2023-05-16T08:34:54.524Z,13
2023-05-16T08:36:07.020Z,13.1
2023-05-16T08:37:20.313Z,13.1
2023-05-16T08:38:33.341Z,13.1
2023-05-16T08:39:46.293Z,13.1
2023-05-16T08:40:59.286Z,12.9
2023-05-16T08:42:12.302Z,12.9
2023-05-16T08:43:25.477Z,12.8
2023-05-16T08:44:38.279Z,12.8
2023-05-16T08:45:51.469Z,12.8
2023-05-16T08:47:04.503Z,12.9
2023-05-16T08:48:17.482Z,12.9
2023-05-16T08:49:30.322Z,13
2023-05-16T08:50:43.348Z,13.1
2023-05-16T08:51:56.304Z,13.1
2023-05-16T08:53:09.315Z,13
2023-05-16T08:54:22.396Z,12.9
2023-05-16T08:55:35.397Z,12.9
2023-05-16T08:56:48.299Z,12.8
2023-05-16T08:58:01.278Z,12.7
2023-05-16T08:59:14.290Z,12.8
2023-05-16T09:00:27.258Z,12.8
2023-05-16T09:01:40.328Z,12.9
2023-05-16T09:02:53.323Z,13
2023-05-16T09:04:06.324Z,13.1
2023-05-16T09:05:19.289Z,13.1
2023-05-16T09:06:32.326Z,13.1
2023-05-16T09:07:45.324Z,13.1
2023-05-16T09:08:58.324Z,13
2023-05-16T09:10:11.303Z,12.9
2023-05-16T09:11:24.290Z,12.8
2023-05-16T09:12:37.423Z,12.8
2023-05-16T09:13:50.313Z,12.8
2023-05-16T09:15:03.440Z,12.8
2023-05-16T09:16:16.370Z,12.8
2023-05-16T09:17:38.894Z,12.8
2023-05-16T09:18:42.339Z,12.9
2023-05-16T09:19:55.274Z,12.9
2023-05-16T09:21:08.457Z,12.9
2023-05-16T09:22:21.773Z,12.9
2023-05-16T09:23:36.498Z,12.9
2023-05-16T09:24:47.277Z,12.8
2023-05-16T09:26:00.290Z,12.8
2023-05-16T09:27:13.482Z,12.8
2023-05-16T09:28:26.257Z,12.8
2023-05-16T09:29:39.248Z,12.8
2023-05-16T09:30:52.275Z,12.9
2023-05-16T09:32:05.274Z,13.1
2023-05-16T09:33:18.253Z,13.2
2023-05-16T09:34:31.469Z,13.3
2023-05-16T09:35:45.598Z,13.4
2023-05-16T09:36:57.273Z,13.4
2023-05-16T09:38:10.334Z,13.6
2023-05-16T09:39:23.411Z,13.6
2023-05-16T09:40:36.215Z,13.6
2023-05-16T09:41:49.366Z,13.6
2023-05-16T09:43:02.285Z,13.6
2023-05-16T09:44:15.503Z,13.6
2023-05-16T09:45:28.372Z,13.6
2023-05-16T09:46:41.291Z,13.7
2023-05-16T09:47:54.442Z,13.8
2023-05-16T09:49:07.330Z,13.9
2023-05-16T09:50:20.336Z,14
2023-05-16T09:51:33.282Z,14.1
2023-05-16T09:52:46.239Z,14.2
2023-05-16T09:53:59.264Z,14.2
2023-05-16T09:55:12.275Z,14.2
2023-05-16T09:56:25.231Z,14.1
2023-05-16T09:57:38.251Z,14
2023-05-16T09:58:51.258Z,14
2023-05-16T10:00:04.227Z,14
2023-05-16T10:01:17.275Z,14
2023-05-16T10:02:30.332Z,14
2023-05-16T10:03:43.360Z,14
2023-05-16T10:04:56.222Z,14
2023-05-16T10:06:09.267Z,14
2023-05-16T10:07:22.328Z,14
2023-05-16T10:08:35.234Z,14.1
2023-05-16T10:09:48.252Z,14.2
2023-05-16T10:11:01.351Z,14.4
2023-05-16T10:12:14.280Z,14.5
2023-05-16T10:13:27.290Z,14.7
2023-05-16T10:14:40.292Z,14.9
2023-05-16T10:15:53.267Z,15.2
2023-05-16T10:17:06.418Z,15.1
2023-05-16T10:18:19.311Z,15.3
2023-05-16T10:19:32.360Z,15.3
2023-05-16T10:20:44.972Z,15.3
2023-05-16T10:21:58.304Z,15.2
2023-05-16T10:23:11.385Z,15.1
2023-05-16T10:24:24.280Z,14.9
2023-05-16T10:25:37.304Z,14.8
2023-05-16T10:26:50.302Z,14.7
2023-05-16T10:28:03.297Z,14.7
2023-05-16T10:29:16.276Z,14.7
2023-05-16T10:30:29.286Z,14.7
2023-05-16T10:31:42.479Z,14.7
2023-05-16T10:32:55.292Z,14.7
2023-05-16T10:34:08.271Z,14.6
2023-05-16T10:35:21.396Z,14.6
2023-05-16T10:36:34.251Z,14.6
2023-05-16T10:37:47.249Z,14.4
2023-05-16T10:39:00.252Z,14.4
2023-05-16T10:40:13.265Z,14.4
2023-05-16T10:41:26.290Z,14.4
2023-05-16T10:42:39.271Z,14.6
2023-05-16T10:43:52.270Z,14.6
2023-05-16T10:45:06.117Z,14.7
2023-05-16T10:46:18.721Z,14.8
2023-05-16T10:47:31.272Z,14.9
2023-05-16T10:48:44.359Z,14.9
2023-05-16T10:49:57.259Z,14.8
2023-05-16T10:51:10.287Z,14.7
2023-05-16T10:52:23.399Z,14.6
2023-05-16T10:53:36.320Z,14.6
2023-05-16T10:54:49.391Z,14.4
2023-05-16T10:56:02.303Z,14.4
2023-05-16T10:57:15.231Z,14.3
2023-05-16T10:58:28.265Z,14.3
2023-05-16T10:59:41.232Z,14.1
2023-05-16T11:00:54.105Z,14.2
2023-05-16T11:02:07.373Z,14.2
2023-05-16T11:03:20.311Z,14
2023-05-16T11:04:33.278Z,14
2023-05-16T11:05:46.294Z,14
2023-05-16T11:06:59.267Z,14
2023-05-16T11:08:12.351Z,13.8
2023-05-16T11:09:25.338Z,13.8
2023-05-16T11:10:38.449Z,13.8
2023-05-16T11:11:51.270Z,13.8
2023-05-16T11:13:04.280Z,13.8
2023-05-16T11:14:17.280Z,13.6
2023-05-16T11:15:30.393Z,13.6
2023-05-16T11:16:43.487Z,13.5
2023-05-16T11:17:56.257Z,13.4
2023-05-16T11:19:09.369Z,13.3
2023-05-16T11:20:22.268Z,13.3
2023-05-16T11:21:35.259Z,13.3
2023-05-16T11:22:48.292Z,13.3
2023-05-16T11:24:01.382Z,13.3
2023-05-16T11:25:14.297Z,13.5
2023-05-16T11:26:27.291Z,13.5
2023-05-16T11:27:40.310Z,13.5
2023-05-16T11:28:53.295Z,13.5
2023-05-16T11:30:06.273Z,13.5
2023-05-16T11:31:19.360Z,13.5
2023-05-16T11:32:32.333Z,13.6
2023-05-16T11:33:45.282Z,13.6
2023-05-16T11:34:58.267Z,13.8
2023-05-16T11:36:16.114Z,13.8
2023-05-16T11:37:24.288Z,13.8
2023-05-16T11:38:37.335Z,13.8
2023-05-16T11:39:50.333Z,13.8
2023-05-16T11:41:03.228Z,13.8
2023-05-16T11:42:16.262Z,13.8
2023-05-16T11:43:29.457Z,13.8
2023-05-16T11:44:42.296Z,13.9
2023-05-16T11:45:55.276Z,14.1
2023-05-16T11:47:08.358Z,14.2
2023-05-16T11:48:28.753Z,14.3
2023-05-16T11:49:34.269Z,14.3
2023-05-16T11:50:47.260Z,14.3
2023-05-16T11:52:00.262Z,14.4
2023-05-16T11:53:13.249Z,14.4
2023-05-16T11:54:26.265Z,14.4
2023-05-16T11:55:41.592Z,14.6
2023-05-16T11:56:52.250Z,14.6
2023-05-16T11:58:05.289Z,14.6
2023-05-16T11:59:18.462Z,14.7
2023-05-16T12:00:31.455Z,14.7
2023-05-16T12:01:45.201Z,14.7
2023-05-16T12:02:57.550Z,14.7
2023-05-16T12:04:10.452Z,14.6
2023-05-16T12:05:23.307Z,14.6
2023-05-16T12:06:36.304Z,14.4
2023-05-16T12:07:49.316Z,14.4
2023-05-16T12:09:02.305Z,14.4
2023-05-16T12:10:15.246Z,14.3
2023-05-16T12:11:28.254Z,14.2
2023-05-16T12:12:41.269Z,14.1
2023-05-16T12:13:54.240Z,14.2
2023-05-16T12:15:07.289Z,14.2
2023-05-16T12:16:20.312Z,14.2
2023-05-16T12:17:33.299Z,14.1
2023-05-16T12:18:46.338Z,13.8
2023-05-16T12:19:59.334Z,13.6
2023-05-16T12:21:12.368Z,13.5
2023-05-16T12:22:25.298Z,13.4
2023-05-16T12:23:38.376Z,13.4
2023-05-16T12:24:51.289Z,13.6
2023-05-16T12:26:04.274Z,13.6
2023-05-16T12:27:17.274Z,13.6
2023-05-16T12:28:30.307Z,13.4
2023-05-16T12:29:43.284Z,13.5
2023-05-16T12:30:56.233Z,13.5
2023-05-16T12:32:09.287Z,13.3
2023-05-16T12:33:22.320Z,13.3
2023-05-16T12:34:35.304Z,13.2
2023-05-16T12:35:48.249Z,13.2
2023-05-16T12:37:01.278Z,13.2
2023-05-16T12:38:14.308Z,13.1
2023-05-16T12:39:27.332Z,13.1
2023-05-16T12:40:40.299Z,13.1
2023-05-16T12:41:53.311Z,13.1
2023-05-16T12:43:06.379Z,13.1
2023-05-16T12:44:19.455Z,13.1
2023-05-16T12:45:34.025Z,13.1
2023-05-16T12:46:45.336Z,13.2
2023-05-16T12:47:58.309Z,13.2
2023-05-16T12:49:11.280Z,13.2
2023-05-16T12:50:24.338Z,13.2
2023-05-16T12:51:37.472Z,13.3
2023-05-16T12:52:50.367Z,13.3
2023-05-16T12:54:10.048Z,13.3
2023-05-16T12:55:16.296Z,13.3
2023-05-16T12:56:29.272Z,13.3
2023-05-16T12:57:42.321Z,13.3
2023-05-16T12:58:55.313Z,13.4
2023-05-16T13:00:08.493Z,13.5
2023-05-16T13:01:21.304Z,13.5
2023-05-16T13:02:34.355Z,13.5
2023-05-16T13:03:47.795Z,13.6
2023-05-16T13:05:01.032Z,13.7
2023-05-16T13:06:13.285Z,13.8
2023-05-16T13:07:26.357Z,13.9
2023-05-16T13:08:39.284Z,13.9
2023-05-16T13:09:52.405Z,13.8
2023-05-16T13:11:05.272Z,13.8
2023-05-16T13:12:18.371Z,13.9
2023-05-16T13:13:36.202Z,13.9
2023-05-16T13:14:44.276Z,13.8
2023-05-16T13:15:57.507Z,13.8
2023-05-16T13:17:10.248Z,13.9
2023-05-16T13:18:23.438Z,13.9
2023-05-16T13:19:36.301Z,13.9
2023-05-16T13:20:49.413Z,14
2023-05-16T13:22:02.246Z,14
2023-05-16T13:23:15.279Z,14
2023-05-16T13:24:28.249Z,14
2023-05-16T13:25:41.245Z,14.2
2023-05-16T13:26:54.321Z,14.2
2023-05-16T13:28:07.328Z,14.2
2023-05-16T13:29:20.333Z,14.2
2023-05-16T13:30:33.253Z,14.3
2023-05-16T13:31:46.509Z,14.3
2023-05-16T13:32:59.344Z,14.3
2023-05-16T13:34:12.263Z,14.3
2023-05-16T13:35:25.330Z,14.3
2023-05-16T13:36:49.731Z,14.3
2023-05-16T13:37:51.292Z,14.4
2023-05-16T13:39:04.237Z,14.4
2023-05-16T13:40:17.342Z,14.5
2023-05-16T13:41:30.223Z,14.6
2023-05-16T13:42:43.279Z,14.6
2023-05-16T13:43:56.256Z,14.6
2023-05-16T13:45:09.288Z,14.7
2023-05-16T13:46:22.297Z,14.7
2023-05-16T13:47:35.265Z,14.9
2023-05-16T13:48:48.254Z,14.9
2023-05-16T13:50:01.275Z,14.9
2023-05-16T13:51:14.266Z,14.9
2023-05-16T13:52:27.158Z,15.1
2023-05-16T13:53:40.393Z,15.2
2023-05-16T13:54:53.267Z,15.2
2023-05-16T13:56:06.127Z,15.2
2023-05-16T13:57:19.319Z,15.2
2023-05-16T13:58:32.697Z,15.2
2023-05-16T14:00:11.207Z,15.2
2023-05-16T14:00:58.244Z,15.3
2023-05-16T14:02:11.454Z,15.5
2023-05-16T14:03:24.751Z,15.6
2023-05-16T14:04:37.242Z,15.7
2023-05-16T14:05:50.331Z,15.6
2023-05-16T14:07:03.148Z,15.7
2023-05-16T14:08:16.254Z,15.7
2023-05-16T14:09:29.273Z,15.5
2023-05-16T14:10:42.273Z,15.4
2023-05-16T14:11:55.252Z,15.3
2023-05-16T14:13:08.260Z,15.3
2023-05-16T14:14:21.410Z,15.2
2023-05-16T14:15:34.238Z,15.2
2023-05-16T14:16:47.469Z,14.9
2023-05-16T14:18:00.542Z,14.9
2023-05-16T14:19:13.616Z,14.9
2023-05-16T14:20:26.282Z,14.9
2023-05-16T14:21:39.218Z,14.9
2023-05-16T14:22:52.190Z,14.9
2023-05-16T14:24:05.199Z,14.9
2023-05-16T14:25:18.306Z,14.9
2023-05-16T14:26:31.224Z,14.9
2023-05-16T14:27:44.206Z,14.7
2023-05-16T14:28:57.232Z,14.7
2023-05-16T14:30:10.285Z,14.8
2023-05-16T14:31:23.157Z,14.8
2023-05-16T14:32:36.331Z,14.8
2023-05-16T14:33:49.270Z,14.9
2023-05-16T14:35:02.402Z,14.9
2023-05-16T14:36:15.129Z,14.9
2023-05-16T14:37:28.284Z,14.9
2023-05-16T14:38:41.232Z,14.9
2023-05-16T14:39:54.108Z,14.9
2023-05-16T14:41:07.195Z,14.8
2023-05-16T14:42:20.152Z,14.7
2023-05-16T14:43:33.261Z,14.7
2023-05-16T14:44:45.996Z,14.6
2023-05-16T14:48:25.338Z,14.4
2023-05-16T14:49:38.779Z,14.4
2023-05-16T14:50:51.417Z,14.4
2023-05-16T14:52:04.294Z,14.4
2023-05-16T14:53:17.262Z,14.3
2023-05-16T14:54:30.096Z,14.3
2023-05-16T14:55:43.270Z,14.3
2023-05-16T14:56:56.153Z,14.3
2023-05-16T14:58:09.208Z,14.3
2023-05-16T14:59:22.256Z,14.3
2023-05-16T15:00:35.261Z,14.3
2023-05-16T15:01:48.240Z,14.3
2023-05-16T15:03:01.294Z,14.3
2023-05-16T15:04:14.267Z,14.3
2023-05-16T15:05:27.283Z,14.3
2023-05-16T15:06:39.934Z,14.3
2023-05-16T15:07:53.245Z,14.3
2023-05-16T15:09:06.168Z,14.3
2023-05-16T15:10:19.250Z,14.3
2023-05-16T15:11:32.357Z,14.3
2023-05-16T15:12:45.228Z,14.3
2023-05-16T15:13:58.210Z,14.3
2023-05-16T15:15:11.649Z,14.3
2023-05-16T15:16:24.306Z,14.3
2023-05-16T15:17:37.328Z,14.2
2023-05-16T15:18:50.258Z,14.2
2023-05-16T15:20:03.438Z,14.2
2023-05-16T15:21:15.915Z,14.2
2023-05-16T15:22:30.328Z,14.2
2023-05-16T15:23:42.271Z,14.2
2023-05-16T15:24:55.070Z,14.2
2023-05-16T15:26:08.271Z,14.2
2023-05-16T15:27:21.231Z,14.3
2023-05-16T15:28:34.197Z,14.3
2023-05-16T15:29:47.231Z,14.3
2023-05-16T15:31:00.345Z,14.3
2023-05-16T15:32:13.315Z,14.3
2023-05-16T15:33:26.414Z,14.3
2023-05-16T15:34:39.605Z,14.3
2023-05-16T15:35:52.237Z,14.3
2023-05-16T15:37:05.230Z,14.3
2023-05-16T15:38:18.263Z,14.4
2023-05-16T15:39:31.354Z,14.4
2023-05-16T15:40:44.236Z,14.4
2023-05-16T15:42:09.633Z,14.4
2023-05-16T15:43:10.232Z,14.4
2023-05-16T15:44:23.197Z,14.4
2023-05-16T15:45:37.958Z,14.4
2023-05-16T15:46:49.244Z,14.4
2023-05-16T15:48:02.285Z,14.4
2023-05-16T15:49:15.223Z,14.4
2023-05-16T15:50:28.118Z,14.4
2023-05-16T15:51:41.252Z,14.4
2023-05-16T15:52:54.251Z,14.3
2023-05-16T15:54:06.980Z,14.3
2023-05-16T15:55:20.223Z,14.3
2023-05-16T15:56:33.261Z,14.3
2023-05-16T15:57:46.263Z,14.3
2023-05-16T15:58:59.238Z,14.1
2023-05-16T16:00:12.251Z,14.2
2023-05-16T16:01:25.311Z,14.2
2023-05-16T16:02:38.415Z,14.2
2023-05-16T16:03:51.319Z,14.2
2023-05-16T16:05:04.198Z,14.2
2023-05-16T16:06:17.306Z,14
2023-05-16T16:07:30.417Z,14
2023-05-16T16:08:43.417Z,14
2023-05-16T16:09:56.859Z,14
2023-05-16T16:11:09.252Z,13.8
2023-05-16T16:12:22.366Z,13.8
2023-05-16T16:13:35.264Z,13.9
2023-05-16T16:14:48.377Z,13.8
2023-05-16T16:16:01.212Z,13.8
2023-05-16T16:17:14.256Z,13.7
2023-05-16T16:18:27.257Z,13.6
2023-05-16T16:19:40.211Z,13.6
2023-05-16T16:20:53.245Z,13.5
2023-05-16T16:22:06.277Z,13.5
2023-05-16T16:23:19.256Z,13.5
2023-05-16T16:24:32.280Z,13.5
2023-05-16T16:25:45.232Z,13.4
2023-05-16T16:26:58.269Z,13.3
2023-05-16T16:28:11.247Z,13.3
2023-05-16T16:29:24.246Z,13.3
2023-05-16T16:30:37.227Z,13.2
2023-05-16T16:31:50.284Z,13.2
2023-05-16T16:33:03.299Z,13.1
2023-05-16T16:34:16.278Z,13.1
2023-05-16T16:35:29.518Z,13.1
2023-05-16T16:36:42.246Z,13
2023-05-16T16:39:08.254Z,12.9
2023-05-16T16:40:21.274Z,13
2023-05-16T16:41:34.422Z,13
2023-05-16T16:42:47.222Z,12.9
2023-05-16T16:44:00.379Z,12.8
2023-05-16T16:45:13.123Z,12.8